createdAt,value
2019-01-29T00:00:44.546Z,98677.46
2019-01-29T00:03:16.111Z,98678.77
2019-01-29T00:05:47.567Z,98681.19
2019-01-29T00:08:19.072Z,98682.28
2019-01-29T00:10:50.627Z,98683.31
2019-01-29T00:13:22.104Z,98693.60
2019-01-29T00:15:53.665Z,98687.20
2019-01-29T00:18:25.124Z,98681.84
2019-01-29T00:20:56.551Z,98681.58
2019-01-29T00:23:28.014Z,98687.03
2019-01-29T00:25:59.485Z,98687.80
2019-01-29T00:28:31.008Z,98684.34
2019-01-29T00:31:02.445Z,98686.50
2019-01-29T00:33:34.245Z,98692.05
2019-01-29T00:36:05.726Z,98695.67
2019-01-29T00:38:37.231Z,98703.53
2019-01-29T00:41:08.677Z,98705.19
2019-01-29T00:43:40.102Z,98698.61
2019-01-29T00:46:13.220Z,98702.33
2019-01-29T00:48:44.978Z,98704.45
2019-01-29T00:51:16.430Z,98702.23
2019-01-29T00:53:47.922Z,98698.79
2019-01-29T00:56:19.350Z,98701.30
2019-01-29T00:58:50.841Z,98703.06
2019-01-29T01:01:22.321Z,98705.27
2019-01-29T01:03:54.093Z,98704.53
2019-01-29T01:06:25.537Z,98709.62
2019-01-29T01:08:57.053Z,98705.66
2019-01-29T01:11:28.637Z,98699.68
2019-01-29T01:14:00.117Z,98702.35
2019-01-29T01:16:31.891Z,98698.36
2019-01-29T01:19:03.765Z,98695.19
2019-01-29T01:21:35.176Z,98698.30
2019-01-29T01:24:06.633Z,98702.59
2019-01-29T01:26:38.121Z,98692.78
2019-01-29T01:29:09.581Z,98697.97
2019-01-29T01:31:41.010Z,98686.22
2019-01-29T01:34:12.728Z,98694.27
2019-01-29T01:36:44.199Z,98690.58
2019-01-29T01:39:15.621Z,98694.91
2019-01-29T01:41:47.051Z,98694.16
2019-01-29T01:44:18.591Z,98699.81
2019-01-29T01:46:50.092Z,98693.50
2019-01-29T01:49:21.956Z,98687.20
2019-01-29T01:51:53.413Z,98681.45
2019-01-29T01:54:24.854Z,98691.63
2019-01-29T01:56:56.305Z,98690.11
2019-01-29T01:59:27.755Z,98689.17
2019-01-29T02:01:59.226Z,98687.74
2019-01-29T02:04:30.965Z,98689.32
2019-01-29T02:07:02.407Z,98692.70
2019-01-29T02:09:33.939Z,98696.28
2019-01-29T02:12:05.403Z,98700.05
2019-01-29T02:14:36.916Z,98703.55
2019-01-29T02:17:08.711Z,98712.53
2019-01-29T02:19:40.517Z,98710.58
2019-01-29T02:22:11.975Z,98719.36
2019-01-29T02:24:43.544Z,98720.73
2019-01-29T02:27:14.958Z,98719.22
2019-01-29T02:29:46.452Z,98724.58
2019-01-29T02:32:17.871Z,98721.22
2019-01-29T02:34:49.631Z,98724.66
2019-01-29T02:37:21.069Z,98726.94
2019-01-29T02:39:52.687Z,98733.41
2019-01-29T02:42:24.161Z,98734.66
2019-01-29T02:44:55.666Z,98732.62
2019-01-29T02:47:27.091Z,98736.66
2019-01-29T02:49:58.955Z,98737.28
2019-01-29T02:52:30.408Z,98741.84
2019-01-29T02:55:01.889Z,98746.27
2019-01-29T02:57:33.302Z,98745.25
2019-01-29T03:00:05.036Z,98743.25
2019-01-29T03:02:36.581Z,98753.84
2019-01-29T03:05:09.052Z,98754.04
2019-01-29T03:07:40.525Z,98754.78
2019-01-29T03:10:13.931Z,98758.13
2019-01-29T03:12:45.342Z,98765.69
2019-01-29T03:15:32.078Z,98773.14
2019-01-29T03:18:03.786Z,98762.16
2019-01-29T03:20:35.547Z,98761.14
2019-01-29T03:23:07.019Z,98770.86
2019-01-29T03:25:38.466Z,98769.80
2019-01-29T03:28:09.909Z,98781.06
2019-01-29T03:30:41.390Z,98781.73
2019-01-29T03:33:12.871Z,98778.52
2019-01-29T03:35:44.362Z,98774.55
2019-01-29T03:38:15.812Z,98774.47
2019-01-29T03:40:47.290Z,98772.70
2019-01-29T03:43:18.759Z,98775.13
2019-01-29T03:45:50.237Z,98772.63
2019-01-29T03:48:21.683Z,98776.07
2019-01-29T03:50:53.410Z,98771.80
2019-01-29T03:53:24.890Z,98773.48
2019-01-29T03:55:56.336Z,98779.95
2019-01-29T03:58:27.790Z,98777.80
2019-01-29T04:00:59.237Z,98782.95
2019-01-29T04:03:30.738Z,98784.67
2019-01-29T04:06:02.442Z,98788.98
2019-01-29T04:08:33.928Z,98784.91
2019-01-29T04:11:05.371Z,98792.55
2019-01-29T04:13:36.809Z,98795.45
2019-01-29T04:16:08.342Z,98799.20
2019-01-29T04:18:39.939Z,98803.72
2019-01-29T04:21:11.647Z,98803.95
2019-01-29T04:23:47.796Z,98808.88
2019-01-29T04:26:16.257Z,98812.41
2019-01-29T04:28:47.746Z,98808.67
2019-01-29T04:31:19.611Z,98808.39
2019-01-29T04:33:51.075Z,98804.52
2019-01-29T04:36:22.820Z,98809.30
2019-01-29T04:38:54.277Z,98810.20
2019-01-29T04:41:25.719Z,98810.89
2019-01-29T04:43:57.192Z,98813.95
2019-01-29T04:46:28.687Z,98817.55
2019-01-29T04:49:00.212Z,98813.13
2019-01-29T04:51:31.900Z,98824.61
2019-01-29T04:54:03.372Z,98823.52
2019-01-29T04:56:37.695Z,98822.98
2019-01-29T04:59:09.180Z,98825.49
2019-01-29T05:01:40.623Z,98831.57
2019-01-29T05:04:12.077Z,98835.09
2019-01-29T05:06:43.854Z,98838.28
2019-01-29T05:09:15.320Z,98834.16
2019-01-29T05:11:46.766Z,98835.02
2019-01-29T05:14:18.239Z,98838.43
2019-01-29T05:16:49.743Z,98835.69
2019-01-29T05:19:21.564Z,98833.03
2019-01-29T05:21:53.211Z,98836.36
2019-01-29T05:24:24.981Z,98839.70
2019-01-29T05:26:56.495Z,98831.79
2019-01-29T05:29:28.062Z,98833.47
2019-01-29T05:31:59.502Z,98840.70
2019-01-29T05:34:30.951Z,98837.95
2019-01-29T05:37:02.444Z,98833.14
2019-01-29T05:39:33.927Z,98840.47
2019-01-29T05:42:05.372Z,98846.16
2019-01-29T05:44:36.903Z,98844.42
2019-01-29T05:47:08.416Z,98842.87
2019-01-29T05:49:39.886Z,98839.45
2019-01-29T05:52:11.616Z,98843.73
2019-01-29T05:54:43.081Z,98851.17
2019-01-29T05:57:14.585Z,98858.47
2019-01-29T05:59:46.024Z,98850.20
2019-01-29T06:02:17.756Z,98860.75
2019-01-29T06:04:49.198Z,98860.13
2019-01-29T06:07:20.959Z,98855.89
2019-01-29T06:09:52.404Z,98865.31
2019-01-29T06:12:23.948Z,98869.04
2019-01-29T06:14:55.410Z,98865.44
2019-01-29T06:17:28.537Z,98869.33
2019-01-29T06:20:00.300Z,98873.47
2019-01-29T06:22:32.024Z,98874.97
2019-01-29T06:25:03.490Z,98873.05
2019-01-29T06:27:34.990Z,98882.50
2019-01-29T06:30:08.474Z,98886.39
2019-01-29T06:32:39.982Z,98893.45
2019-01-29T06:35:13.947Z,98889.27
2019-01-29T06:37:45.710Z,98898.33
2019-01-29T06:40:26.114Z,98907.85
2019-01-29T06:42:57.586Z,98904.56
2019-01-29T06:45:29.009Z,98911.04
2019-01-29T06:48:00.500Z,98911.79
2019-01-29T06:50:31.947Z,98917.83
2019-01-29T06:53:03.690Z,98916.81
2019-01-29T06:55:35.174Z,98921.30
2019-01-29T06:58:06.612Z,98934.40
2019-01-29T07:00:38.083Z,98936.83
2019-01-29T07:03:09.763Z,98941.39
2019-01-29T07:05:41.243Z,98937.43
2019-01-29T07:08:12.851Z,98940.02
2019-01-29T07:10:44.361Z,98940.07
2019-01-29T07:13:15.880Z,98942.82
2019-01-29T07:19:16.160Z,98947.56
2019-01-29T07:21:47.690Z,98947.89
2019-01-29T07:24:19.293Z,98946.44
2019-01-29T07:26:50.734Z,98950.09
2019-01-29T07:29:22.174Z,98962.89
2019-01-29T07:31:53.640Z,98964.27
2019-01-29T07:34:25.060Z,98972.48
2019-01-29T07:36:56.481Z,98976.48
2019-01-29T07:39:28.320Z,98976.25
2019-01-29T07:41:59.788Z,98979.08
2019-01-29T07:44:31.233Z,98982.53
2019-01-29T07:47:02.706Z,98980.73
2019-01-29T07:49:34.176Z,98987.45
2019-01-29T07:52:05.674Z,98992.87
2019-01-29T07:54:37.317Z,98991.66
2019-01-29T07:57:08.777Z,98995.49
2019-01-29T07:59:40.296Z,98988.47
2019-01-29T08:02:11.968Z,98992.82
2019-01-29T08:04:43.535Z,98998.95
2019-01-29T08:07:14.964Z,98995.81
2019-01-29T08:09:47.253Z,99006.66
2019-01-29T08:12:18.715Z,99012.47
2019-01-29T08:14:50.228Z,99016.24
2019-01-29T08:17:21.675Z,99020.36
2019-01-29T08:19:53.256Z,99023.81
2019-01-29T08:22:24.692Z,99028.34
2019-01-29T08:25:01.914Z,99033.30
2019-01-29T08:27:29.697Z,99033.25
2019-01-29T08:30:01.175Z,99048.44
2019-01-29T08:32:33.937Z,99049.02
2019-01-29T08:35:05.488Z,99046.20
2019-01-29T08:37:36.992Z,99052.48
2019-01-29T08:40:08.969Z,99049.34
2019-01-29T08:42:40.457Z,99053.16
2019-01-29T08:45:11.983Z,99056.27
2019-01-29T08:47:43.455Z,99064.88
2019-01-29T08:50:19.096Z,99070.80
2019-01-29T08:52:50.608Z,99066.31
2019-01-29T08:55:22.839Z,99074.41
2019-01-29T08:57:54.364Z,99070.58
2019-01-29T09:00:27.590Z,99072.46
2019-01-29T09:02:59.077Z,99070.87
2019-01-29T09:05:30.611Z,99068.29
2019-01-29T09:08:02.097Z,99076.83
2019-01-29T09:10:33.928Z,99083.81
2019-01-29T09:13:05.415Z,99081.47
2019-01-29T09:15:36.906Z,99083.44
2019-01-29T09:18:08.391Z,99080.46
2019-01-29T09:20:39.855Z,99076.64
2019-01-29T09:23:11.854Z,99084.53
2019-01-29T09:25:43.585Z,99088.12
2019-01-29T09:28:18.493Z,99089.94
2019-01-29T09:30:48.294Z,99088.58
2019-01-29T09:33:19.936Z,99083.39
2019-01-29T09:35:51.429Z,99095.54
2019-01-29T09:38:22.904Z,99093.50
2019-01-29T09:40:54.748Z,99100.41
2019-01-29T09:43:26.229Z,99106.40
2019-01-29T09:45:57.706Z,99106.73
2019-01-29T09:48:30.787Z,99105.33
2019-01-29T09:51:02.255Z,99107.02
2019-01-29T09:53:33.790Z,99100.83
2019-01-29T09:56:05.656Z,99102.80
2019-01-29T09:58:37.118Z,99107.22
2019-01-29T10:01:08.620Z,99103.84
2019-01-29T10:03:40.149Z,99099.08
2019-01-29T10:06:11.589Z,99100.77
2019-01-29T10:08:43.034Z,99097.14
2019-01-29T10:11:14.805Z,99098.86
2019-01-29T10:13:46.337Z,99100.44
2019-01-29T10:16:17.799Z,99099.16
2019-01-29T10:18:49.325Z,99098.94
2019-01-29T10:21:21.954Z,99098.33
2019-01-29T10:23:53.869Z,99101.67
2019-01-29T10:26:25.655Z,99097.73
2019-01-29T10:28:57.086Z,99094.97
2019-01-29T10:31:28.583Z,99108.72
2019-01-29T10:34:00.036Z,99099.45
2019-01-29T10:36:31.648Z,99110.67
2019-01-29T10:39:03.183Z,99091.58
2019-01-29T10:41:36.600Z,99098.48
2019-01-29T10:44:08.174Z,99106.26
2019-01-29T10:46:39.619Z,99106.57
2019-01-29T10:49:11.086Z,99109.73
2019-01-29T10:51:42.535Z,99110.45
2019-01-29T10:54:13.992Z,99110.57
2019-01-29T10:56:45.825Z,99109.16
2019-01-29T10:59:17.275Z,99107.92
2019-01-29T11:01:48.776Z,99118.69
2019-01-29T11:04:20.291Z,99116.90
2019-01-29T11:06:51.906Z,99109.23
2019-01-29T11:09:25.625Z,99118.14
2019-01-29T11:11:56.888Z,99121.67
2019-01-29T11:14:28.364Z,99118.52
2019-01-29T11:16:59.841Z,99121.57
2019-01-29T11:19:31.320Z,99117.23
2019-01-29T11:22:02.779Z,99129.50
2019-01-29T11:24:34.654Z,99128.12
2019-01-29T11:27:06.416Z,99137.34
2019-01-29T11:29:37.857Z,99124.78
2019-01-29T11:32:09.389Z,99133.63
2019-01-29T11:34:40.862Z,99133.17
2019-01-29T11:37:12.324Z,99120.38
2019-01-29T11:39:43.947Z,99140.61
2019-01-29T11:42:15.749Z,99147.83
2019-01-29T11:44:49.332Z,99144.56
2019-01-29T11:47:20.931Z,99143.95
2019-01-29T11:49:52.411Z,99143.53
2019-01-29T11:52:23.897Z,99150.28
2019-01-29T11:54:55.456Z,99142.49
2019-01-29T11:57:27.219Z,99148.35
2019-01-29T11:59:58.665Z,99154.42
2019-01-29T12:02:30.185Z,99157.46
2019-01-29T12:05:01.723Z,99153.34
2019-01-29T12:07:33.256Z,99163.89
2019-01-29T12:10:05.599Z,99166.28
2019-01-29T12:12:37.351Z,99163.02
2019-01-29T12:15:11.264Z,99173.95
2019-01-29T12:17:46.230Z,99169.78
2019-01-29T12:20:17.765Z,99179.04
2019-01-29T12:22:49.315Z,99175.64
2019-01-29T12:25:21.150Z,99184.98
2019-01-29T12:27:52.956Z,99182.99
2019-01-29T12:30:24.802Z,99189.88
2019-01-29T12:32:56.318Z,99198.55
2019-01-29T12:35:27.854Z,99196.27
2019-01-29T12:38:00.564Z,99204.88
2019-01-29T12:40:32.085Z,99203.95
2019-01-29T12:43:04.131Z,99210.52
2019-01-29T12:45:35.652Z,99210.52
2019-01-29T12:48:07.659Z,99213.42
2019-01-29T12:50:40.863Z,99209.52
2019-01-29T12:53:17.188Z,99216.11
2019-01-29T12:55:48.641Z,99214.81
2019-01-29T12:58:20.510Z,99216.48
2019-01-29T13:00:55.545Z,99217.16
2019-01-29T13:03:27.011Z,99214.53
2019-01-29T13:05:58.471Z,99220.80
2019-01-29T13:08:29.998Z,99226.17
2019-01-29T13:11:03.315Z,99230.56
2019-01-29T13:13:35.137Z,99230.34
2019-01-29T13:16:06.639Z,99238.44
2019-01-29T13:18:38.187Z,99236.89
2019-01-29T13:21:09.641Z,99237.87
2019-01-29T13:23:41.136Z,99243.09
2019-01-29T13:26:12.894Z,99238.91
2019-01-29T13:28:44.827Z,99247.89
2019-01-29T13:31:16.276Z,99256.33
2019-01-29T13:33:47.772Z,99255.89
2019-01-29T13:36:20.813Z,99259.98
2019-01-29T13:38:52.330Z,99260.34
2019-01-29T13:41:23.801Z,99260.94
2019-01-29T13:43:55.537Z,99260.98
2019-01-29T13:46:27.046Z,99262.91
2019-01-29T13:48:58.535Z,99269.63
2019-01-29T13:51:30.030Z,99275.45
2019-01-29T13:54:01.534Z,99270.05
2019-01-29T13:56:38.808Z,99272.35
2019-01-29T13:59:06.615Z,99271.84
2019-01-29T14:01:38.144Z,99274.12
2019-01-29T14:04:09.731Z,99281.03
2019-01-29T14:06:41.344Z,99272.69
2019-01-29T14:09:12.807Z,99275.73
2019-01-29T14:11:44.336Z,99277.99
2019-01-29T14:14:16.160Z,99284.50
2019-01-29T14:16:47.657Z,99287.80
2019-01-29T14:19:19.157Z,99285.91
2019-01-29T14:21:50.668Z,99287.52
2019-01-29T14:24:22.100Z,99294.53
2019-01-29T14:26:53.977Z,99297.25
2019-01-29T14:29:26.641Z,99294.91
2019-01-29T14:31:58.558Z,99303.80
2019-01-29T14:34:31.241Z,99296.60
2019-01-29T14:37:02.786Z,99307.61
2019-01-29T14:40:07.310Z,99303.12
2019-01-29T14:42:38.885Z,99306.06
2019-01-29T14:45:23.467Z,99310.02
2019-01-29T14:47:55.066Z,99311.60
2019-01-29T14:50:26.609Z,99310.58
2019-01-29T14:52:58.114Z,99328.80
2019-01-29T14:55:29.592Z,99328.73
2019-01-29T14:58:01.471Z,99338.42
2019-01-29T15:00:33.024Z,99342.63
2019-01-29T15:03:04.503Z,99337.52
2019-01-29T15:05:38.979Z,99345.51
2019-01-29T15:08:10.640Z,99347.64
2019-01-29T15:10:42.300Z,99349.83
2019-01-29T15:13:14.058Z,99354.92
2019-01-29T15:15:50.865Z,99352.84
2019-01-29T15:18:25.957Z,99354.73
2019-01-29T15:20:57.521Z,99362.30
2019-01-29T15:23:30.094Z,99361.69
2019-01-29T15:26:01.605Z,99371.99
2019-01-29T15:28:33.200Z,99372.92
2019-01-29T15:31:05.058Z,99382.08
2019-01-29T15:33:36.502Z,99372.53
2019-01-29T15:36:08.305Z,99378.28
2019-01-29T15:38:39.856Z,99387.14
2019-01-29T15:41:11.359Z,99389.66
2019-01-29T15:43:43.905Z,99386.08
2019-01-29T15:46:15.593Z,99392.13
2019-01-29T15:48:47.095Z,99397.87
2019-01-29T15:51:18.537Z,99403.45
2019-01-29T15:53:50.060Z,99409.46
2019-01-29T15:56:21.540Z,99408.70
2019-01-29T15:58:53.143Z,99414.89
2019-01-29T16:01:24.598Z,99421.59
2019-01-29T16:03:56.082Z,99419.34
2019-01-29T16:06:29.222Z,99427.27
2019-01-29T16:09:00.711Z,99427.20
2019-01-29T16:11:33.830Z,99436.71
2019-01-29T16:14:05.821Z,99438.84
2019-01-29T16:16:37.655Z,99436.02
2019-01-29T16:19:09.142Z,99437.77
2019-01-29T16:21:40.641Z,99445.81
2019-01-29T16:24:12.188Z,99446.19
2019-01-29T16:26:43.887Z,99451.63
2019-01-29T16:29:15.456Z,99459.74
2019-01-29T16:31:47.162Z,99463.33
2019-01-29T16:34:18.708Z,99465.42
2019-01-29T16:36:50.197Z,99462.98
2019-01-29T16:39:21.717Z,99466.94
2019-01-29T16:41:53.193Z,99470.94
2019-01-29T16:44:24.783Z,99469.63
2019-01-29T16:46:56.883Z,99467.16
2019-01-29T16:49:28.444Z,99476.97
2019-01-29T16:51:59.899Z,99481.95
2019-01-29T16:54:31.398Z,99482.33
2019-01-29T16:57:02.867Z,99486.69
2019-01-29T16:59:34.493Z,99491.55
2019-01-29T17:02:06.263Z,99487.94
2019-01-29T17:04:37.771Z,99490.89
2019-01-29T17:07:09.311Z,99498.22
2019-01-29T17:09:40.783Z,99502.05
2019-01-29T17:12:12.253Z,99505.16
2019-01-29T17:14:43.853Z,99503.43
2019-01-29T17:17:15.679Z,99508.73
2019-01-29T17:19:47.313Z,99506.60
2019-01-29T17:22:18.966Z,99512.19
2019-01-29T17:24:50.787Z,99514.03
2019-01-29T17:27:22.346Z,99518.13
2019-01-29T17:29:54.273Z,99519.48
2019-01-29T17:32:30.391Z,99526.61
2019-01-29T17:34:58.983Z,99525.37
2019-01-29T17:37:30.542Z,99535.14
2019-01-29T17:40:02.014Z,99531.66
2019-01-29T17:42:33.582Z,99533.14
2019-01-29T17:45:05.420Z,99531.83
2019-01-29T17:47:37.607Z,99542.67
2019-01-29T17:50:15.584Z,99536.69
2019-01-29T17:52:47.414Z,99540.08
2019-01-29T17:55:19.451Z,99538.91
2019-01-29T17:57:51.585Z,99540.56
2019-01-29T18:00:28.212Z,99548.80
2019-01-29T18:03:00.062Z,99550.84
2019-01-29T18:05:31.626Z,99549.50
2019-01-29T18:08:03.155Z,99550.76
2019-01-29T18:10:34.844Z,99556.66
2019-01-29T18:13:07.732Z,99551.73
2019-01-29T18:15:40.188Z,99550.19
2019-01-29T18:18:12.056Z,99552.45
2019-01-29T18:20:43.604Z,99551.80
2019-01-29T18:23:15.473Z,99554.20
2019-01-29T18:25:47.059Z,99554.84
2019-01-29T18:28:18.592Z,99559.32
2019-01-29T18:30:50.166Z,99563.33
2019-01-29T18:33:21.993Z,99563.96
2019-01-29T18:35:53.514Z,99566.48
2019-01-29T18:38:25.160Z,99564.88
2019-01-29T18:40:58.013Z,99565.66
2019-01-29T18:43:29.743Z,99571.20
2019-01-29T18:46:01.366Z,99576.50
2019-01-29T18:48:33.214Z,99576.44
2019-01-29T18:51:04.741Z,99577.44
2019-01-29T18:53:36.298Z,99574.54
2019-01-29T18:56:09.240Z,99575.11
2019-01-29T18:58:41.279Z,99579.58
2019-01-29T19:01:12.873Z,99580.03
2019-01-29T19:03:44.425Z,99580.21
2019-01-29T19:06:15.997Z,99577.30
2019-01-29T19:08:47.667Z,99585.36
2019-01-29T19:11:19.193Z,99583.08
2019-01-29T19:13:51.011Z,99587.30
2019-01-29T19:16:22.797Z,99581.44
2019-01-29T19:18:54.597Z,99588.66
2019-01-29T19:21:26.164Z,99586.77
2019-01-29T19:23:57.750Z,99593.48
2019-01-29T19:26:30.173Z,99594.87
2019-01-29T19:29:02.475Z,99596.80
2019-01-29T19:31:35.407Z,99594.81
2019-01-29T19:34:07.439Z,99596.39
2019-01-29T19:36:39.079Z,99583.81
2019-01-29T19:39:11.288Z,99580.66
2019-01-29T19:41:42.900Z,99582.77
2019-01-29T19:44:14.656Z,99588.02
2019-01-29T19:46:46.236Z,99591.19
2019-01-29T19:49:18.322Z,99592.20
2019-01-29T19:51:50.109Z,99595.91
2019-01-29T19:54:21.697Z,99602.11
2019-01-29T19:56:53.594Z,99591.69
2019-01-29T19:59:25.263Z,99602.76
2019-01-29T20:01:57.331Z,99603.56
2019-01-29T20:04:29.250Z,99607.05
2019-01-29T20:07:01.065Z,99608.80
2019-01-29T20:09:33.620Z,99611.58
2019-01-29T20:12:05.594Z,99617.51
2019-01-29T20:14:37.462Z,99611.59
2019-01-29T20:17:10.312Z,99613.37
2019-01-29T20:19:42.312Z,99610.70
2019-01-29T20:22:14.562Z,99609.02
2019-01-29T20:24:46.271Z,99610.17
2019-01-29T20:27:19.380Z,99614.65
2019-01-29T20:29:51.030Z,99617.16
2019-01-29T20:32:23.266Z,99617.97
2019-01-29T20:34:55.280Z,99619.52
2019-01-29T20:37:27.235Z,99620.41
2019-01-29T20:39:59.029Z,99627.03
2019-01-29T20:42:30.696Z,99622.77
2019-01-29T20:45:02.269Z,99623.09
2019-01-29T20:47:34.191Z,99626.77
2019-01-29T20:50:08.203Z,99626.48
2019-01-29T20:52:39.776Z,99623.89
2019-01-29T20:55:11.816Z,99624.69
2019-01-29T20:57:43.557Z,99630.94
2019-01-29T21:00:20.189Z,99630.88
2019-01-29T21:02:52.429Z,99632.28
2019-01-29T21:05:24.245Z,99631.43
2019-01-29T21:07:56.023Z,99629.67
2019-01-29T21:10:27.549Z,99631.59
2019-01-29T21:12:59.217Z,99631.72
2019-01-29T21:15:38.087Z,99628.95
2019-01-29T21:18:06.621Z,99625.90
2019-01-29T21:20:38.815Z,99628.13
2019-01-29T21:23:10.324Z,99624.38
2019-01-29T21:25:41.988Z,99624.62
2019-01-29T21:28:13.566Z,99625.70
2019-01-29T21:30:46.562Z,99617.19
2019-01-29T21:33:18.354Z,99620.72
2019-01-29T21:35:49.879Z,99622.09
2019-01-29T21:38:21.536Z,99625.74
2019-01-29T21:40:53.035Z,99625.77
2019-01-29T21:43:24.672Z,99626.22
2019-01-29T21:45:56.217Z,99623.41
2019-01-29T21:48:27.734Z,99631.55
2019-01-29T21:50:59.644Z,99628.81
2019-01-29T21:53:31.223Z,99635.48
2019-01-29T21:56:02.752Z,99633.36
2019-01-29T21:58:34.422Z,99631.28
2019-01-29T22:01:06.071Z,99634.19
2019-01-29T22:03:37.959Z,99630.05
2019-01-29T22:06:09.855Z,99636.58
2019-01-29T22:08:41.355Z,99644.86
2019-01-29T22:11:12.886Z,99633.88
2019-01-29T22:13:44.434Z,99644.26
2019-01-29T22:16:16.009Z,99649.44
2019-01-29T22:18:47.599Z,99649.47
2019-01-29T22:21:19.736Z,99651.34
2019-01-29T22:23:51.431Z,99647.68
2019-01-29T22:26:23.071Z,99647.36
2019-01-29T22:28:54.596Z,99649.13
2019-01-29T22:31:26.342Z,99649.65
2019-01-29T22:33:58.228Z,99655.28
2019-01-29T22:36:30.012Z,99661.12
2019-01-29T22:39:01.541Z,99658.75
2019-01-29T22:41:34.626Z,99659.00
2019-01-29T22:44:06.161Z,99662.48
2019-01-29T22:46:37.661Z,99658.53
2019-01-29T22:49:09.124Z,99659.98
2019-01-29T22:51:41.086Z,99662.47
2019-01-29T22:54:12.589Z,99666.67
2019-01-29T22:56:44.037Z,99669.77
2019-01-29T22:59:15.516Z,99658.73
2019-01-29T23:01:47.048Z,99655.47
2019-01-29T23:04:34.710Z,99661.31
2019-01-29T23:07:31.706Z,99655.16
2019-01-29T23:10:05.018Z,99658.27
2019-01-29T23:12:36.529Z,99659.61
2019-01-29T23:15:10.503Z,99653.34
2019-01-29T23:17:42.031Z,99654.12
2019-01-29T23:20:14.018Z,99658.02
2019-01-29T23:22:46.021Z,99654.02
2019-01-29T23:25:17.675Z,99650.81
2019-01-29T23:27:49.248Z,99654.23
2019-01-29T23:30:20.763Z,99645.69
2019-01-29T23:32:52.310Z,99653.05
2019-01-29T23:35:24.148Z,99654.30
2019-01-29T23:37:56.050Z,99645.14
2019-01-29T23:40:27.620Z,99650.31
2019-01-29T23:42:59.086Z,99656.84
2019-01-29T23:45:30.574Z,99661.23
2019-01-29T23:48:03.281Z,99659.61
2019-01-29T23:50:34.761Z,99656.78
2019-01-29T23:53:06.238Z,99654.48
2019-01-29T23:55:39.116Z,99653.38
2019-01-29T23:58:10.561Z,99651.20
